Time;durP1;ratioP1;P1;durP2;ratioP2;P2;SDS_P1;SDS_P2;PMS_P1;PMS_P2;Temp;Humidity;BMP_temperature;BMP_pressure;BME280_temperature;BME280_humidity;BME280_pressure;Samples;Min_cycle;Max_cycle;Signal;HPM_P1;HPM_P2
2022/05/17 00:01:54;;;;;;;4.80;3.90;;;14.40;99.90;;;;;;5087973;28;20999;-87
2022/05/17 00:04:21;;;;;;;3.83;3.50;;;14.40;99.90;;;;;;5089983;28;20657;-87
2022/05/17 00:06:48;;;;;;;4.23;3.53;;;14.40;99.90;;;;;;5089457;28;21166;-88
2022/05/17 00:09:16;;;;;;;6.23;5.20;;;14.40;99.90;;;;;;5090555;28;20631;-87
2022/05/17 00:11:44;;;;;;;6.90;3.93;;;14.30;99.90;;;;;;5087965;28;20628;-87
2022/05/17 00:14:13;;;;;;;4.20;3.73;;;14.30;99.90;;;;;;5089892;28;20631;-87
2022/05/17 00:16:41;;;;;;;4.40;3.77;;;14.30;99.90;;;;;;5090139;28;21213;-87
2022/05/17 00:19:08;;;;;;;5.13;4.13;;;14.10;99.90;;;;;;5090912;28;20630;-86
2022/05/17 00:21:36;;;;;;;5.93;3.47;;;14.10;99.90;;;;;;5094734;28;20634;-87
2022/05/17 00:24:04;;;;;;;4.30;3.90;;;14.10;99.90;;;;;;5100430;28;20620;-87
2022/05/17 00:26:34;;;;;;;4.90;3.70;;;14.00;99.90;;;;;;5099993;28;20620;-87
2022/05/17 00:29:01;;;;;;;6.63;4.57;;;14.00;99.90;;;;;;5087903;28;20638;-87
2022/05/17 00:31:29;;;;;;;4.10;3.73;;;14.00;99.90;;;;;;5092092;28;20659;-87
2022/05/17 00:33:56;;;;;;;4.70;4.30;;;13.90;99.90;;;;;;5095108;28;21155;-87
2022/05/17 00:36:23;;;;;;;5.03;4.53;;;13.90;99.90;;;;;;5090855;28;20656;-87
2022/05/17 00:38:50;;;;;;;5.00;4.20;;;13.90;99.90;;;;;;5089511;28;20628;-87
2022/05/17 00:41:18;;;;;;;5.50;4.30;;;13.80;99.90;;;;;;5089931;28;21154;-87
2022/05/17 00:46:43;;;;;;;4.77;3.97;;;13.70;99.90;;;;;;5088133;28;20592;-87
2022/05/17 00:49:14;;;;;;;5.00;4.50;;;13.80;99.90;;;;;;5087307;28;21082;-87
2022/05/17 00:51:43;;;;;;;5.07;4.20;;;13.80;99.90;;;;;;5086426;28;20632;-87
2022/05/17 00:54:16;;;;;;;7.23;4.20;;;13.70;99.90;;;;;;5085778;28;20625;-87
2022/05/17 00:56:50;;;;;;;8.20;4.20;;;13.70;99.90;;;;;;5088878;28;20664;-87
2022/05/17 00:59:18;;;;;;;8.40;4.20;;;13.60;99.90;;;;;;5082782;28;20624;-87
2022/05/17 01:01:46;;;;;;;4.40;3.87;;;13.60;99.90;;;;;;5089132;28;20626;-86
2022/05/17 01:04:17;;;;;;;8.00;4.10;;;13.60;99.90;;;;;;5085666;28;20667;-87
2022/05/17 01:06:48;;;;;;;6.00;4.93;;;13.60;99.90;;;;;;5084269;28;20624;-86
2022/05/17 01:09:15;;;;;;;8.43;3.70;;;13.60;99.90;;;;;;5083227;28;20627;-87
2022/05/17 01:11:43;;;;;;;6.33;4.43;;;13.50;99.90;;;;;;5084149;28;21073;-88
2022/05/17 01:16:57;;;;;;;4.80;4.20;;;13.60;99.90;;;;;;5086894;28;20656;-88
2022/05/17 01:19:24;;;;;;;4.70;3.30;;;13.40;99.90;;;;;;5078436;28;20628;-87
2022/05/17 01:21:52;;;;;;;4.47;3.70;;;13.40;99.90;;;;;;5083285;28;21011;-87
2022/05/17 01:24:19;;;;;;;4.60;4.20;;;13.50;99.90;;;;;;5084982;28;20627;-87
2022/05/17 01:26:51;;;;;;;6.33;4.17;;;13.40;99.90;;;;;;5084458;28;20625;-87
2022/05/17 01:29:18;;;;;;;9.13;4.57;;;13.40;99.90;;;;;;5083339;28;21198;-87
2022/05/17 01:31:45;;;;;;;4.10;3.70;;;13.40;99.90;;;;;;5081067;28;20647;-88
2022/05/17 01:34:12;;;;;;;5.03;4.27;;;13.40;99.90;;;;;;5083426;28;20631;-87
2022/05/17 01:36:41;;;;;;;7.00;4.70;;;13.40;99.90;;;;;;5093594;28;20656;-87
2022/05/17 01:39:09;;;;;;;5.20;3.77;;;13.30;99.90;;;;;;5078483;28;20597;-87
2022/05/17 01:41:36;;;;;;;6.47;4.60;;;13.30;99.90;;;;;;5081105;28;20647;-87
2022/05/17 01:44:03;;;;;;;5.73;4.20;;;13.30;99.90;;;;;;5084890;28;20624;-87
2022/05/17 01:46:30;;;;;;;4.40;3.93;;;13.30;99.90;;;;;;5093330;28;20631;-87
2022/05/17 01:48:58;;;;;;;5.40;4.27;;;13.30;99.90;;;;;;5084444;28;20648;-87
2022/05/17 01:51:24;;;;;;;3.93;3.63;;;13.20;99.90;;;;;;5084310;28;20756;-87
2022/05/17 01:53:51;;;;;;;4.97;4.57;;;13.20;99.90;;;;;;5084721;28;20620;-88
2022/05/17 01:56:20;;;;;;;8.47;6.17;;;12.70;99.90;;;;;;5084756;28;20665;-87
2022/05/17 01:58:46;;;;;;;6.20;5.43;;;13.10;99.90;;;;;;5084855;28;21232;-87
2022/05/17 02:01:14;;;;;;;9.07;5.50;;;13.10;99.90;;;;;;5083310;28;21014;-87
2022/05/17 02:03:40;;;;;;;7.87;6.07;;;13.10;99.90;;;;;;5080534;28;20629;-87
2022/05/17 02:06:08;;;;;;;7.80;5.10;;;13.10;99.90;;;;;;5084093;28;20628;-88
2022/05/17 02:08:35;;;;;;;6.00;5.47;;;13.10;99.90;;;;;;5086076;28;20632;-87
2022/05/17 02:11:03;;;;;;;6.33;5.73;;;13.00;99.90;;;;;;5085979;28;20644;-87
2022/05/17 02:13:31;;;;;;;7.93;5.60;;;12.60;99.90;;;;;;5082264;28;20620;-87
2022/05/17 02:15:58;;;;;;;6.97;6.27;;;12.70;99.90;;;;;;5087473;28;20679;-88
2022/05/17 02:18:25;;;;;;;6.90;6.30;;;12.90;99.90;;;;;;5081621;28;20640;-86
2022/05/17 02:20:52;;;;;;;6.60;6.00;;;13.00;99.90;;;;;;5082141;28;20988;-86
2022/05/17 02:23:18;;;;;;;6.63;5.70;;;12.90;99.90;;;;;;5083862;28;20616;-86
2022/05/17 02:25:46;;;;;;;6.70;6.20;;;12.90;99.90;;;;;;5081723;28;20625;-86
2022/05/17 02:28:13;;;;;;;7.07;6.47;;;12.90;99.90;;;;;;5082254;28;20631;-86
2022/05/17 02:30:42;;;;;;;8.73;5.60;;;12.90;99.90;;;;;;5082204;28;21182;-86
2022/05/17 02:33:11;;;;;;;7.10;6.37;;;12.80;99.90;;;;;;5082633;28;20984;-86
2022/05/17 02:35:38;;;;;;;10.83;7.77;;;12.80;99.90;;;;;;5082502;28;20986;-86
2022/05/17 02:38:05;;;;;;;7.37;6.63;;;12.80;99.90;;;;;;5083986;28;20628;-86
2022/05/17 02:40:32;;;;;;;7.23;6.60;;;12.60;99.90;;;;;;5083875;28;21271;-86
2022/05/17 02:42:59;;;;;;;7.27;6.30;;;12.80;99.90;;;;;;5078174;28;20623;-86
2022/05/17 02:45:26;;;;;;;7.90;7.10;;;12.70;99.90;;;;;;5081770;28;20624;-86
2022/05/17 02:47:56;;;;;;;7.97;7.30;;;12.70;99.90;;;;;;5076829;28;20624;-87
2022/05/17 02:50:23;;;;;;;7.60;6.80;;;12.80;99.90;;;;;;5080087;28;21217;-87
2022/05/17 02:52:50;;;;;;;7.00;6.30;;;12.80;99.90;;;;;;5084094;28;20632;-87
2022/05/17 02:55:17;;;;;;;7.00;5.67;;;12.70;99.90;;;;;;5087164;28;21357;-87
2022/05/17 02:57:44;;;;;;;8.77;6.60;;;12.70;99.90;;;;;;5085700;28;20664;-87
2022/05/17 03:00:14;;;;;;;8.10;6.70;;;12.40;99.90;;;;;;5084513;28;20656;-87
2022/05/17 03:02:40;;;;;;;7.50;6.90;;;12.70;99.90;;;;;;5082117;28;20650;-87
2022/05/17 03:05:11;;;;;;;7.47;6.57;;;12.40;99.90;;;;;;5084092;28;20619;-87
2022/05/17 03:07:38;;;;;;;7.33;6.67;;;12.60;99.90;;;;;;5079586;28;20617;-86
2022/05/17 03:10:06;;;;;;;9.03;7.13;;;12.50;99.90;;;;;;5084494;28;20823;-87
2022/05/17 03:12:33;;;;;;;8.20;7.43;;;12.60;99.90;;;;;;5086062;28;20608;-87
2022/05/17 03:14:59;;;;;;;8.23;6.93;;;12.60;99.90;;;;;;5083175;28;20627;-87
2022/05/17 03:17:27;;;;;;;8.67;7.87;;;12.60;99.90;;;;;;5082092;28;20734;-87
2022/05/17 03:19:55;;;;;;;7.90;6.27;;;12.50;99.90;;;;;;5085516;28;21008;-87
2022/05/17 03:22:23;;;;;;;7.13;6.47;;;12.50;99.90;;;;;;5081485;28;20942;-86
2022/05/17 03:24:50;;;;;;;11.53;6.40;;;12.50;99.90;;;;;;5082917;28;20624;-87
2022/05/17 03:27:18;;;;;;;7.53;6.83;;;12.50;99.90;;;;;;5086457;28;20612;-87
2022/05/17 03:29:45;;;;;;;8.93;6.87;;;12.50;99.90;;;;;;5079198;28;20657;-87
2022/05/17 03:32:12;;;;;;;8.10;7.40;;;12.40;99.90;;;;;;5082396;28;20631;-88
2022/05/17 03:34:39;;;;;;;6.90;6.37;;;12.00;99.90;;;;;;5082375;28;20625;-87
2022/05/17 03:37:06;;;;;;;8.10;6.20;;;12.40;99.90;;;;;;5084402;28;20752;-87
2022/05/17 03:39:34;;;;;;;7.20;6.53;;;12.40;99.90;;;;;;5082045;28;20675;-86
2022/05/17 03:42:01;;;;;;;7.53;6.60;;;12.30;99.90;;;;;;5084001;28;20659;-87
2022/05/17 03:44:28;;;;;;;6.83;6.20;;;12.20;99.90;;;;;;5084048;28;20616;-86
2022/05/17 03:46:55;;;;;;;7.80;7.10;;;12.00;99.90;;;;;;5084501;28;20612;-86
2022/05/17 03:49:22;;;;;;;7.43;6.73;;;12.30;99.90;;;;;;5085774;28;20624;-87
2022/05/17 03:51:48;;;;;;;7.23;6.63;;;11.90;99.90;;;;;;5080713;28;20622;-87
2022/05/17 03:54:18;;;;;;;11.33;6.73;;;12.30;99.90;;;;;;5080076;28;20643;-86
2022/05/17 03:56:47;;;;;;;6.40;5.80;;;12.40;99.90;;;;;;5086154;28;20664;-86
2022/05/17 03:59:14;;;;;;;7.40;5.20;;;11.90;99.90;;;;;;5077678;28;21134;-86
2022/05/17 04:01:41;;;;;;;7.40;6.70;;;12.30;99.90;;;;;;5075484;28;20647;-86
2022/05/17 04:04:08;;;;;;;9.47;6.13;;;12.30;99.90;;;;;;5079026;28;20631;-87
2022/05/17 04:06:34;;;;;;;6.80;6.20;;;11.90;99.90;;;;;;5079046;28;20620;-87
2022/05/17 04:09:01;;;;;;;7.40;6.57;;;12.30;99.90;;;;;;5079025;28;20620;-86
2022/05/17 04:11:28;;;;;;;7.13;5.63;;;12.30;99.90;;;;;;5083402;28;20648;-87
2022/05/17 04:13:56;;;;;;;8.50;7.37;;;12.30;99.90;;;;;;5084517;28;20630;-87
2022/05/17 04:16:23;;;;;;;9.73;7.33;;;12.10;99.90;;;;;;5083609;28;21100;-86
2022/05/17 04:18:49;;;;;;;7.57;6.87;;;12.30;99.90;;;;;;5083436;28;20632;-87
2022/05/17 04:21:19;;;;;;;6.37;5.70;;;12.30;99.90;;;;;;5081762;28;21009;-86
2022/05/17 04:23:46;;;;;;;7.37;6.63;;;12.30;99.90;;;;;;5076211;28;20624;-86
2022/05/17 04:26:14;;;;;;;6.93;6.33;;;12.30;99.90;;;;;;5082586;28;20648;-87
2022/05/17 04:28:42;;;;;;;7.57;6.63;;;12.20;99.90;;;;;;5075093;28;20636;-87
2022/05/17 04:31:10;;;;;;;7.63;6.97;;;12.40;99.90;;;;;;5083244;28;20662;-87
2022/05/17 04:33:37;;;;;;;7.30;6.60;;;12.40;99.90;;;;;;5088101;28;20624;-87
2022/05/17 04:36:04;;;;;;;8.03;7.23;;;12.00;99.90;;;;;;5084564;28;20980;-87
2022/05/17 04:38:31;;;;;;;9.03;7.20;;;12.60;99.90;;;;;;5085448;28;20660;-87
2022/05/17 04:40:58;;;;;;;7.30;6.60;;;12.50;99.90;;;;;;5084642;28;20652;-87
2022/05/17 04:43:24;;;;;;;7.57;6.77;;;12.40;99.90;;;;;;5082877;28;21331;-87
2022/05/17 04:45:52;;;;;;;11.30;7.43;;;12.40;99.90;;;;;;5086645;28;20612;-87
2022/05/17 04:48:20;;;;;;;7.10;6.10;;;12.60;99.90;;;;;;5088099;28;20619;-86
2022/05/17 04:50:47;;;;;;;6.87;6.37;;;12.70;99.90;;;;;;5087206;28;20632;-86
2022/05/17 04:53:14;;;;;;;6.77;6.20;;;12.40;99.90;;;;;;5082440;28;20635;-86
2022/05/17 04:55:41;;;;;;;8.07;6.43;;;12.80;99.90;;;;;;5085429;28;20632;-86
2022/05/17 04:58:07;;;;;;;7.53;6.83;;;12.90;99.90;;;;;;5084131;28;21498;-86
2022/05/17 05:00:35;;;;;;;8.80;6.73;;;12.90;99.90;;;;;;5084514;28;20656;-86
2022/05/17 05:03:02;;;;;;;8.00;7.20;;;13.00;99.90;;;;;;5083112;28;20640;-86
2022/05/17 05:05:31;;;;;;;8.67;7.77;;;12.80;99.90;;;;;;5081323;28;20621;-86
2022/05/17 05:07:57;;;;;;;7.07;6.37;;;13.00;99.90;;;;;;5088062;28;20624;-87
2022/05/17 05:10:24;;;;;;;9.10;8.30;;;13.20;99.90;;;;;;5081120;28;20651;-87
2022/05/17 05:12:51;;;;;;;10.93;8.30;;;13.20;99.90;;;;;;5079739;28;20616;-86
2022/05/17 05:15:19;;;;;;;8.80;8.10;;;13.30;99.90;;;;;;5079708;28;21188;-87
2022/05/17 05:17:46;;;;;;;8.10;7.43;;;13.40;99.90;;;;;;5083939;28;20749;-86
2022/05/17 05:20:16;;;;;;;8.80;8.00;;;13.50;99.90;;;;;;5084379;28;20655;-86
2022/05/17 05:22:45;;;;;;;8.33;7.53;;;13.60;99.90;;;;;;5082096;28;20661;-86
2022/05/17 05:25:13;;;;;;;7.17;6.57;;;13.70;99.90;;;;;;5084362;28;20620;-86
2022/05/17 05:27:41;;;;;;;9.43;6.90;;;13.80;99.90;;;;;;5082126;28;20623;-86
2022/05/17 05:30:13;;;;;;;7.97;7.23;;;13.80;99.90;;;;;;5081917;28;20648;-86
2022/05/17 05:32:40;;;;;;;7.90;7.10;;;13.90;99.90;;;;;;5086408;28;20981;-86
2022/05/17 05:35:07;;;;;;;8.30;7.40;;;14.00;99.90;;;;;;5080046;28;20624;-86
2022/05/17 05:37:35;;;;;;;8.37;6.73;;;14.00;99.90;;;;;;5085730;28;20691;-86
2022/05/17 05:40:03;;;;;;;10.87;6.60;;;14.10;99.90;;;;;;5077530;28;21184;-85
2022/05/17 05:42:30;;;;;;;9.27;7.07;;;14.10;99.90;;;;;;5083722;28;20639;-85
2022/05/17 05:44:57;;;;;;;6.97;5.70;;;14.20;99.90;;;;;;5081374;28;20994;-86
2022/05/17 05:47:24;;;;;;;6.60;5.83;;;14.20;99.90;;;;;;5082254;28;20623;-85
2022/05/17 05:49:51;;;;;;;6.70;5.70;;;14.30;99.90;;;;;;5081629;28;20675;-85
2022/05/17 05:52:19;;;;;;;6.80;6.17;;;14.30;99.90;;;;;;5084918;28;20653;-85
2022/05/17 05:54:46;;;;;;;6.67;6.17;;;14.40;99.90;;;;;;5081583;28;20639;-87
2022/05/17 05:57:14;;;;;;;6.63;5.80;;;14.40;99.90;;;;;;5083563;28;20675;-86
2022/05/17 05:59:42;;;;;;;6.73;6.13;;;14.50;99.90;;;;;;5079494;28;20656;-86
2022/05/17 06:02:11;;;;;;;8.20;6.40;;;14.60;99.90;;;;;;5085522;28;20624;-85
2022/05/17 06:04:39;;;;;;;7.23;5.73;;;14.70;99.90;;;;;;5080605;28;20640;-86
2022/05/17 06:07:06;;;;;;;9.33;7.00;;;14.90;99.90;;;;;;5081708;28;20620;-86
2022/05/17 06:09:33;;;;;;;6.93;6.23;;;15.10;99.90;;;;;;5079114;28;21661;-86
2022/05/17 06:12:00;;;;;;;9.80;6.40;;;15.20;99.90;;;;;;5080900;28;20755;-86
2022/05/17 06:14:29;;;;;;;9.07;6.67;;;15.30;99.90;;;;;;5080604;28;20605;-85
2022/05/17 06:16:56;;;;;;;7.53;6.00;;;15.40;99.90;;;;;;5084754;28;20620;-85
2022/05/17 06:19:23;;;;;;;6.40;5.90;;;15.60;99.90;;;;;;5080322;28;20612;-85
2022/05/17 06:21:51;;;;;;;9.30;5.63;;;15.70;99.90;;;;;;5080739;28;20678;-85
2022/05/17 06:24:19;;;;;;;7.47;6.23;;;15.70;99.90;;;;;;5080790;28;20633;-85
2022/05/17 06:26:46;;;;;;;7.37;6.23;;;15.80;99.90;;;;;;5079691;28;20715;-86
2022/05/17 06:29:12;;;;;;;11.43;6.47;;;15.90;99.90;;;;;;5076750;28;20693;-85
2022/05/17 06:31:41;;;;;;;7.23;4.87;;;16.00;99.90;;;;;;5078963;28;20636;-86
2022/05/17 06:34:07;;;;;;;7.23;5.43;;;16.10;99.90;;;;;;5080041;28;20628;-86
2022/05/17 06:36:34;;;;;;;7.20;5.63;;;16.10;99.90;;;;;;5083137;28;20632;-86
2022/05/17 06:39:01;;;;;;;9.60;6.23;;;16.20;99.90;;;;;;5083093;28;20672;-86
2022/05/17 06:41:28;;;;;;;7.30;5.50;;;16.30;99.90;;;;;;5082597;28;20660;-85
2022/05/17 06:43:55;;;;;;;7.00;5.93;;;16.40;99.90;;;;;;5083068;28;20632;-84
2022/05/17 06:46:21;;;;;;;6.53;5.93;;;16.50;99.90;;;;;;5077390;28;20615;-86
2022/05/17 06:48:49;;;;;;;6.43;5.53;;;16.60;99.90;;;;;;5079544;28;20618;-86
2022/05/17 06:51:16;;;;;;;8.93;5.80;;;16.70;99.90;;;;;;5082034;28;20657;-85
2022/05/17 06:53:46;;;;;;;7.27;5.83;;;16.80;99.90;;;;;;5081517;28;21039;-86
2022/05/17 06:56:13;;;;;;;6.67;4.90;;;16.90;99.90;;;;;;5075637;28;21227;-85
2022/05/17 06:58:40;;;;;;;7.00;6.37;;;17.10;99.90;;;;;;5079743;28;20668;-86
2022/05/17 07:01:07;;;;;;;6.90;4.80;;;17.10;99.90;;;;;;5078111;28;21266;-86
2022/05/17 07:03:34;;;;;;;4.47;4.10;;;17.20;99.90;;;;;;5083120;28;20638;-86
2022/05/17 07:06:04;;;;;;;11.17;4.60;;;17.40;99.90;;;;;;5081147;28;20718;-86
2022/05/17 07:08:31;;;;;;;6.50;3.53;;;17.40;99.90;;;;;;5084716;28;20975;-86
2022/05/17 07:13:42;;;;;;;11.30;5.27;;;17.70;99.90;;;;;;5078690;28;20608;-86
2022/05/17 07:16:09;;;;;;;9.23;6.47;;;17.70;99.90;;;;;;5079868;28;20638;-86
2022/05/17 07:18:36;;;;;;;5.27;4.77;;;17.70;99.90;;;;;;5077306;28;20669;-87
2022/05/17 07:21:04;;;;;;;6.10;4.60;;;17.90;99.90;;;;;;5080884;28;20654;-86
2022/05/17 07:23:31;;;;;;;7.03;4.10;;;17.90;99.90;;;;;;5075477;28;20628;-86
2022/05/17 07:25:58;;;;;;;7.37;4.93;;;18.10;99.90;;;;;;5078059;28;20631;-86
2022/05/17 07:28:26;;;;;;;8.00;5.70;;;18.10;99.90;;;;;;5075477;28;20625;-86
2022/05/17 07:30:53;;;;;;;6.47;5.03;;;18.30;99.90;;;;;;5078450;28;20640;-86
2022/05/17 07:33:20;;;;;;;6.80;5.13;;;18.50;99.90;;;;;;5081707;28;20716;-86
2022/05/17 07:35:48;;;;;;;7.13;4.40;;;18.60;99.90;;;;;;5074172;28;20630;-86
2022/05/17 07:38:18;;;;;;;4.93;4.20;;;18.70;99.90;;;;;;5073900;28;20644;-86
2022/05/17 07:40:44;;;;;;;6.73;6.13;;;18.80;99.90;;;;;;5079456;28;20707;-86
2022/05/17 07:43:12;;;;;;;9.43;5.07;;;18.90;99.90;;;;;;5075613;28;20630;-86
2022/05/17 07:45:39;;;;;;;8.00;4.93;;;19.00;99.90;;;;;;5077570;28;20634;-86
2022/05/17 07:48:06;;;;;;;9.23;5.10;;;19.10;99.90;;;;;;5067811;28;21335;-86
2022/05/17 07:50:33;;;;;;;7.10;4.80;;;19.20;99.90;;;;;;5070917;28;21204;-86
2022/05/17 07:53:07;;;;;;;8.40;4.93;;;19.20;99.90;;;;;;5077781;28;21281;-86
2022/05/17 07:55:35;;;;;;;6.13;4.70;;;19.30;99.90;;;;;;5079854;28;21088;-88
2022/05/17 07:58:03;;;;;;;5.30;4.00;;;19.50;99.90;;;;;;5079979;28;20732;-87
2022/05/17 08:00:30;;;;;;;6.50;5.10;;;19.40;99.90;;;;;;5079038;28;20650;-87
2022/05/17 08:02:58;;;;;;;8.27;6.23;;;19.60;99.90;;;;;;5077487;28;20628;-87
2022/05/17 08:05:26;;;;;;;10.00;5.23;;;19.80;99.90;;;;;;5075840;28;21101;-87
2022/05/17 08:07:53;;;;;;;15.90;7.57;;;20.00;99.90;;;;;;5075802;28;20678;-87
2022/05/17 08:10:20;;;;;;;6.57;5.50;;;20.10;99.90;;;;;;5077037;28;20649;-87
2022/05/17 08:12:48;;;;;;;9.90;4.77;;;20.20;99.90;;;;;;5079586;28;21895;-85
2022/05/17 08:15:16;;;;;;;7.10;5.37;;;20.40;99.90;;;;;;5084987;28;21057;-85
2022/05/17 08:17:43;;;;;;;10.80;5.20;;;20.50;99.90;;;;;;5085104;28;20655;-86
2022/05/17 08:20:11;;;;;;;6.80;4.47;;;20.60;99.90;;;;;;5083123;28;21058;-86
2022/05/17 08:22:40;;;;;;;9.10;4.40;;;20.60;99.90;;;;;;5084448;28;20629;-87
2022/05/17 08:27:55;;;;;;;6.33;5.30;;;20.60;99.90;;;;;;5083067;28;20719;-86
2022/05/17 08:30:24;;;;;;;4.87;4.43;;;20.60;99.90;;;;;;5083517;28;20648;-89
2022/05/17 08:35:40;;;;;;;4.83;4.30;;;21.00;99.90;;;;;;5084738;28;20653;-88
2022/05/17 08:38:08;;;;;;;8.13;4.30;;;21.10;99.90;;;;;;5086547;28;20998;-88
2022/05/17 08:40:47;;;;;;;5.40;4.17;;;21.30;99.90;;;;;;5077769;28;20670;-89
2022/05/17 08:43:23;;;;;;;7.63;4.00;;;21.40;99.90;;;;;;5071990;28;20648;-89
2022/05/17 08:46:15;;;;;;;5.60;3.53;;;21.50;99.90;;;;;;5077633;28;21220;-87
2022/05/17 08:48:50;;;;;;;5.70;3.60;;;21.60;99.90;;;;;;5079347;28;20620;-86
2022/05/17 08:51:25;;;;;;;5.70;3.83;;;21.70;99.90;;;;;;5082787;28;21033;-86
2022/05/17 08:53:52;;;;;;;7.10;3.40;;;21.80;99.90;;;;;;5084037;28;20671;-85
2022/05/17 08:56:20;;;;;;;5.57;3.13;;;22.00;99.90;;;;;;5080631;28;20701;-86
2022/05/17 08:58:50;;;;;;;7.40;2.70;;;22.10;99.90;;;;;;5082969;28;20664;-86
2022/05/17 09:01:25;;;;;;;6.60;4.30;;;22.30;99.90;;;;;;5081551;28;20664;-86
2022/05/17 09:04:03;;;;;;;3.13;2.83;;;22.50;99.90;;;;;;5083240;28;20673;-87
2022/05/17 09:06:37;;;;;;;4.27;2.60;;;22.50;99.90;;;;;;5088395;28;20619;-87
2022/05/17 09:09:07;;;;;;;2.80;2.60;;;22.70;99.90;;;;;;5077575;28;20632;-87
2022/05/17 09:11:44;;;;;;;3.03;2.70;;;22.70;99.90;;;;;;5082362;28;20641;-87
2022/05/17 09:14:16;;;;;;;3.80;2.53;;;22.80;99.90;;;;;;5084401;28;21213;-87
2022/05/17 09:16:46;;;;;;;2.90;2.13;;;22.90;99.90;;;;;;5090086;28;20635;-87
2022/05/17 09:19:14;;;;;;;4.70;3.37;;;23.10;99.90;;;;;;5091926;28;21000;-86
2022/05/17 09:21:43;;;;;;;6.37;2.67;;;23.30;99.90;;;;;;5091096;28;20617;-87
2022/05/17 09:24:13;;;;;;;5.23;3.30;;;23.40;99.90;;;;;;5085997;28;20623;-87
2022/05/17 09:26:41;;;;;;;8.20;3.40;;;23.60;99.90;;;;;;5079822;28;21250;-86
2022/05/17 09:29:16;;;;;;;4.13;3.40;;;23.70;99.90;;;;;;5077190;28;20914;-87
2022/05/17 09:31:52;;;;;;;2.80;2.30;;;23.90;99.70;;;;;;5078165;28;20993;-87
2022/05/17 09:34:27;;;;;;;3.40;2.97;;;24.00;99.90;;;;;;5083038;28;20639;-88
2022/05/17 09:36:55;;;;;;;5.27;3.17;;;24.10;99.90;;;;;;5084036;28;20636;-87
2022/05/17 09:39:25;;;;;;;2.73;2.53;;;24.10;98.10;;;;;;5082031;28;21106;-87
2022/05/17 09:41:57;;;;;;;2.90;2.67;;;24.00;94.20;;;;;;5087029;28;20642;-86
2022/05/17 09:44:28;;;;;;;3.63;2.53;;;24.00;96.00;;;;;;5077169;28;20620;-86
2022/05/17 09:46:59;;;;;;;3.20;2.87;;;24.10;95.90;;;;;;5081758;28;20632;-88
2022/05/17 09:52:34;;;;;;;3.70;3.03;;;24.20;93.00;;;;;;5080114;28;20591;-87
2022/05/17 09:55:15;;;;;;;14.00;3.43;;;24.30;93.70;;;;;;5074934;28;21269;-86
2022/05/17 09:57:55;;;;;;;5.10;3.03;;;24.30;91.40;;;;;;5081535;28;20976;-87
2022/05/17 10:00:27;;;;;;;5.57;2.80;;;24.40;90.30;;;;;;5080508;28;20658;-86
2022/05/17 10:02:57;;;;;;;3.87;2.30;;;24.40;90.00;;;;;;5081591;28;20632;-87
2022/05/17 10:05:27;;;;;;;2.90;2.50;;;24.50;90.90;;;;;;5078446;28;20632;-87
2022/05/17 10:07:59;;;;;;;4.60;2.70;;;24.60;92.00;;;;;;5076618;28;20694;-87
2022/05/17 10:10:30;;;;;;;5.13;2.50;;;24.60;91.50;;;;;;5077597;28;20660;-87
2022/05/17 10:13:03;;;;;;;4.53;3.10;;;24.50;91.00;;;;;;5078962;28;20621;-87
2022/05/17 10:15:34;;;;;;;2.87;2.43;;;24.50;85.50;;;;;;5086271;28;20707;-87
2022/05/17 10:18:07;;;;;;;3.10;2.80;;;24.50;85.60;;;;;;5085024;28;20620;-88
2022/05/17 10:20:40;;;;;;;3.03;2.50;;;24.50;88.20;;;;;;5080508;28;20657;-88
2022/05/17 10:23:17;;;;;;;4.40;2.70;;;24.60;85.70;;;;;;5082120;28;20663;-88
2022/05/17 10:25:49;;;;;;;5.00;2.83;;;24.50;83.90;;;;;;5079878;28;20674;-87
2022/05/17 10:28:20;;;;;;;3.13;2.30;;;24.80;83.50;;;;;;5081984;28;20624;-88
2022/05/17 10:30:53;;;;;;;5.37;2.83;;;24.90;83.80;;;;;;5079841;28;20673;-88
2022/05/17 10:33:36;;;;;;;3.80;3.07;;;25.10;88.10;;;;;;5079888;28;21164;-89
2022/05/17 10:36:06;;;;;;;7.20;3.13;;;25.20;89.00;;;;;;5077033;28;20616;-88
2022/05/17 10:38:37;;;;;;;3.43;2.93;;;25.30;85.80;;;;;;5081077;28;20653;-88
2022/05/17 10:41:08;;;;;;;6.27;2.70;;;25.40;83.00;;;;;;5077382;28;20655;-87
2022/05/17 10:43:38;;;;;;;5.33;2.70;;;25.40;85.30;;;;;;5081894;28;20616;-87
2022/05/17 10:46:11;;;;;;;4.40;3.40;;;25.60;83.30;;;;;;5088581;28;20635;-87
2022/05/17 10:48:45;;;;;;;3.60;3.30;;;25.80;84.30;;;;;;5080511;28;20644;-87
2022/05/17 10:51:20;;;;;;;3.30;3.00;;;25.90;80.10;;;;;;5087328;28;20652;-88
2022/05/17 10:54:01;;;;;;;3.40;2.60;;;26.20;79.50;;;;;;5086815;28;20623;-87
2022/05/17 10:56:39;;;;;;;5.73;3.23;;;26.40;76.10;;;;;;5079875;28;20631;-87
2022/05/17 10:59:19;;;;;;;2.60;2.37;;;26.50;72.30;;;;;;5082044;28;20735;-87
2022/05/17 11:02:01;;;;;;;3.90;2.63;;;26.70;70.40;;;;;;5081726;28;20692;-86
2022/05/17 11:04:57;;;;;;;2.67;2.47;;;26.80;68.90;;;;;;5083647;28;20631;-87
2022/05/17 11:07:39;;;;;;;2.60;2.40;;;26.80;67.30;;;;;;5085517;28;21202;-87
2022/05/17 11:10:15;;;;;;;2.73;2.53;;;27.00;68.10;;;;;;5084229;28;20726;-87
2022/05/17 11:12:49;;;;;;;2.87;2.23;;;27.20;69.10;;;;;;5083925;28;21172;-87
2022/05/17 11:15:21;;;;;;;3.10;1.90;;;27.60;67.00;;;;;;5082480;28;20624;-87
2022/05/17 11:17:55;;;;;;;3.00;2.40;;;27.70;62.20;;;;;;5080923;28;20596;-86
2022/05/17 11:20:27;;;;;;;3.97;2.27;;;27.70;61.50;;;;;;5077075;28;20680;-86
2022/05/17 11:23:05;;;;;;;2.33;2.10;;;27.70;60.60;;;;;;5083946;28;20699;-87
2022/05/17 11:25:47;;;;;;;2.30;1.73;;;27.70;60.80;;;;;;5078865;28;20628;-87
2022/05/17 11:28:38;;;;;;;3.30;2.30;;;27.80;60.70;;;;;;5078649;28;20616;-87
2022/05/17 11:31:13;;;;;;;5.23;2.17;;;28.00;59.00;;;;;;5077623;28;20681;-87
2022/05/17 11:33:42;;;;;;;4.87;2.23;;;28.20;59.30;;;;;;5081820;28;20678;-86
2022/05/17 11:36:10;;;;;;;4.27;2.10;;;28.30;59.00;;;;;;5080618;28;20638;-87
2022/05/17 11:38:53;;;;;;;2.77;2.00;;;28.40;57.80;;;;;;5080333;28;20633;-87
2022/05/17 11:41:41;;;;;;;4.77;2.07;;;28.40;58.00;;;;;;5082172;28;20640;-87
2022/05/17 11:44:40;;;;;;;3.27;2.77;;;28.80;59.60;;;;;;5075393;28;20624;-87
2022/05/17 11:47:29;;;;;;;3.23;2.20;;;29.30;61.00;;;;;;5078837;28;20703;-87
2022/05/17 11:50:43;;;;;;;2.43;2.10;;;29.60;57.90;;;;;;5084145;28;20662;-86
2022/05/17 11:53:40;;;;;;;2.63;2.00;;;30.20;58.40;;;;;;5085752;28;20710;-86
2022/05/17 11:56:19;;;;;;;4.20;2.50;;;30.40;55.30;;;;;;5080081;28;21167;-85
2022/05/17 11:58:49;;;;;;;2.20;1.60;;;30.80;54.50;;;;;;5085789;28;20758;-86
2022/05/17 12:01:47;;;;;;;2.40;1.73;;;30.90;52.90;;;;;;5090239;28;20658;-87
2022/05/17 12:04:42;;;;;;;5.53;2.07;;;31.20;52.70;;;;;;5082473;28;20650;-86
2022/05/17 12:07:28;;;;;;;1.67;1.57;;;31.60;53.10;;;;;;5083146;28;20624;-87
2022/05/17 12:09:57;;;;;;;1.40;1.30;;;31.40;50.10;;;;;;5082980;28;20651;-87
2022/05/17 12:12:41;;;;;;;1.70;1.60;;;31.50;50.60;;;;;;5085523;28;20649;-87
2022/05/17 12:15:37;;;;;;;1.80;1.20;;;31.60;47.60;;;;;;5084959;28;20767;-87
2022/05/17 12:18:21;;;;;;;2.93;1.43;;;31.30;47.60;;;;;;5081656;28;20864;-87
2022/05/17 12:21:06;;;;;;;4.27;1.30;;;31.20;47.30;;;;;;5080050;28;20668;-87
2022/05/17 12:23:39;;;;;;;1.97;1.03;;;31.70;48.20;;;;;;5077901;28;20624;-87
2022/05/17 12:26:10;;;;;;;1.80;1.47;;;32.20;46.70;;;;;;5079370;28;20608;-87
2022/05/17 12:28:42;;;;;;;2.43;1.90;;;32.40;46.30;;;;;;5084660;28;20617;-87
2022/05/17 12:31:10;;;;;;;2.13;1.30;;;32.40;47.40;;;;;;5082620;28;21107;-87
2022/05/17 12:33:41;;;;;;;2.63;1.70;;;32.70;47.00;;;;;;5081380;28;20623;-87
2022/05/17 12:36:16;;;;;;;3.50;1.37;;;33.10;47.00;;;;;;5082586;28;20662;-87
2022/05/17 12:44:25;;;;;;;1.30;1.17;;;33.30;44.70;;;;;;5084970;28;20635;-88
2022/05/17 12:46:55;;;;;;;2.47;1.60;;;33.10;43.00;;;;;;5085934;28;20639;-87
2022/05/17 12:49:26;;;;;;;3.23;1.37;;;32.50;44.10;;;;;;5079585;28;20612;-85
2022/05/17 12:51:58;;;;;;;1.37;1.03;;;33.00;44.20;;;;;;5083686;28;21585;-87
2022/05/17 12:54:29;;;;;;;2.80;1.40;;;33.10;42.80;;;;;;5080163;28;20615;-87
2022/05/17 12:56:58;;;;;;;5.53;1.30;;;33.00;42.60;;;;;;5082188;28;20669;-87
2022/05/17 12:59:30;;;;;;;1.03;0.90;;;33.00;42.30;;;;;;5085043;28;21022;-88
2022/05/17 13:01:59;;;;;;;1.97;1.60;;;32.90;41.10;;;;;;5082596;28;20978;-87
2022/05/17 13:04:29;;;;;;;1.30;1.20;;;32.70;41.40;;;;;;5076689;28;20753;-87
2022/05/17 13:07:12;;;;;;;1.93;1.30;;;32.60;41.80;;;;;;5088969;28;21223;-87
2022/05/17 13:09:57;;;;;;;1.70;1.30;;;32.60;42.90;;;;;;5083458;28;20671;-87
2022/05/17 13:12:25;;;;;;;2.07;1.30;;;33.10;42.00;;;;;;5083965;28;21198;-87
2022/05/17 13:14:52;;;;;;;2.20;1.30;;;33.50;42.80;;;;;;5084815;28;20642;-87
2022/05/17 13:17:22;;;;;;;1.70;1.60;;;34.20;42.70;;;;;;5070217;28;21060;-87
2022/05/17 13:19:53;;;;;;;2.80;1.17;;;34.50;42.70;;;;;;5085931;28;20748;-88
2022/05/17 13:22:23;;;;;;;3.10;1.40;;;34.70;42.90;;;;;;5084182;28;20650;-88
2022/05/17 13:24:51;;;;;;;2.23;1.57;;;35.10;42.10;;;;;;5086881;28;20635;-87